createdAt,value
2022-12-31T00:02:02.318Z,100043.25
2022-12-31T00:04:35.048Z,100052.16
2022-12-31T00:07:07.681Z,100047.03
2022-12-31T00:09:41.364Z,100052.38
2022-12-31T00:12:16.178Z,100038.91
2022-12-31T00:14:48.934Z,100038.38
2022-12-31T00:17:21.610Z,100030.75
2022-12-31T00:19:54.592Z,100030.25
2022-12-31T00:22:27.213Z,100032.28
2022-12-31T00:25:00.354Z,100026.94
2022-12-31T00:27:33.683Z,100039.16
2022-12-31T00:30:07.412Z,100047.31
2022-12-31T00:32:39.961Z,100039.66
2022-12-31T00:35:12.676Z,100034.56
2022-12-31T00:37:45.233Z,100013.69
2022-12-31T00:40:17.744Z,100011.41
2022-12-31T00:42:50.437Z,99999.44
2022-12-31T00:45:22.997Z,100005.53
2022-12-31T00:47:55.552Z,100007.56
2022-12-31T00:50:28.253Z,100007.06
2022-12-31T00:53:00.850Z,100010.13
2022-12-31T00:55:33.608Z,100010.91
2022-12-31T00:58:06.297Z,100006.31
2022-12-31T01:00:39.607Z,100018.78
2022-12-31T01:03:12.192Z,100008.63
2022-12-31T01:05:44.833Z,100002.50
2022-12-31T01:08:18.097Z,100013.69
2022-12-31T01:11:09.614Z,100010.91
2022-12-31T01:13:42.300Z,100012.16
2022-12-31T01:16:16.134Z,100007.59
2022-12-31T01:18:50.039Z,100013.19
2022-12-31T01:21:22.788Z,100013.19
2022-12-31T01:23:55.464Z,99998.41
2022-12-31T01:26:29.185Z,100008.09
2022-12-31T01:29:02.367Z,100004.53
2022-12-31T01:31:36.323Z,100007.34
2022-12-31T01:34:09.430Z,100012.69
2022-12-31T01:36:42.114Z,100019.03
2022-12-31T01:39:14.655Z,100015.97
2022-12-31T01:41:48.309Z,100009.34
2022-12-31T01:44:23.539Z,100038.91
2022-12-31T01:47:04.297Z,100017.75
2022-12-31T01:49:44.698Z,100011.09
2022-12-31T01:52:37.769Z,100028.69
2022-12-31T01:55:21.520Z,100032.50
2022-12-31T01:58:03.891Z,100063.56
2022-12-31T02:00:36.919Z,100081.34
2022-12-31T02:03:10.045Z,100082.38
2022-12-31T02:05:56.330Z,100058.94
2022-12-31T02:08:28.967Z,100044.44
2022-12-31T02:11:01.552Z,100044.19
2022-12-31T02:13:34.307Z,100051.31
2022-12-31T02:16:34.421Z,100048.78
2022-12-31T02:19:33.868Z,100060.28
2022-12-31T02:22:58.375Z,100070.94
2022-12-31T02:25:56.854Z,100077.06
2022-12-31T02:28:48.099Z,100087.25
2022-12-31T02:31:40.790Z,100084.41
2022-12-31T02:34:33.031Z,100079.06
2022-12-31T02:37:14.483Z,100080.31
2022-12-31T02:39:48.232Z,100086.91
2022-12-31T02:42:20.957Z,100087.19
2022-12-31T02:44:53.635Z,100106.25
2022-12-31T02:47:59.121Z,100104.72
2022-12-31T02:50:55.750Z,100102.19
2022-12-31T02:53:48.730Z,100097.38
2022-12-31T02:57:10.291Z,100093.56
2022-12-31T03:00:17.691Z,100084.38
2022-12-31T03:02:53.167Z,100084.88
2022-12-31T03:05:31.581Z,100094.53
2022-12-31T03:08:04.252Z,100075.97
2022-12-31T03:10:37.117Z,100074.69
2022-12-31T03:13:09.804Z,100072.16
2022-12-31T03:15:42.622Z,100068.81
2022-12-31T03:18:39.723Z,100059.94
2022-12-31T03:21:32.208Z,100068.06
2022-12-31T03:24:23.969Z,100058.41
2022-12-31T03:26:56.618Z,100054.81
2022-12-31T03:29:29.291Z,100057.41
2022-12-31T03:32:02.219Z,100051.81
2022-12-31T03:34:34.722Z,100044.41
2022-12-31T03:37:07.395Z,100053.56
2022-12-31T03:39:40.139Z,100055.34
2022-12-31T03:42:12.815Z,100037.53
2022-12-31T03:44:45.467Z,100028.88
2022-12-31T03:47:18.246Z,100029.38
2022-12-31T03:49:51.236Z,100025.84
2022-12-31T03:52:24.017Z,100009.50
2022-12-31T03:54:56.899Z,100025.06
2022-12-31T03:57:30.090Z,100027.34
2022-12-31T04:00:05.606Z,100012.59
2022-12-31T04:02:38.392Z,100010.03
2022-12-31T04:05:11.930Z,100007.75
2022-12-31T04:07:44.968Z,100007.50
2022-12-31T04:10:19.566Z,100013.88
2022-12-31T04:12:52.180Z,100010.81
2022-12-31T04:15:24.876Z,100004.97
2022-12-31T04:17:57.757Z,99993.00
2022-12-31T04:20:30.321Z,99980.03
2022-12-31T04:23:02.941Z,99977.50
2022-12-31T04:25:35.594Z,99987.41
2022-12-31T04:28:08.347Z,99990.19
2022-12-31T04:30:40.918Z,100012.84
2022-12-31T04:33:13.560Z,100010.56
2022-12-31T04:35:46.087Z,99992.72
2022-12-31T04:38:18.619Z,99985.38
2022-12-31T04:41:09.637Z,99979.53
2022-12-31T04:43:53.057Z,99981.31
2022-12-31T04:46:32.447Z,99984.34
2022-12-31T04:49:05.016Z,99981.31
2022-12-31T04:51:38.416Z,99981.81
2022-12-31T04:54:11.120Z,100008.78
2022-12-31T04:56:43.679Z,99994.28
2022-12-31T04:59:16.363Z,100009.50
2022-12-31T05:01:49.124Z,100015.38
2022-12-31T05:04:21.959Z,100015.59
2022-12-31T05:06:54.634Z,100027.84
2022-12-31T05:09:28.478Z,100035.97
2022-12-31T05:12:01.395Z,100046.16
2022-12-31T05:14:33.971Z,100038.78
2022-12-31T05:17:06.523Z,100041.06
2022-12-31T05:19:39.057Z,100045.66
2022-12-31T05:22:29.604Z,100045.66
2022-12-31T05:25:02.248Z,100055.06
2022-12-31T05:27:35.729Z,100047.16
2022-12-31T05:30:09.528Z,100054.28
2022-12-31T05:32:42.189Z,100062.69
2022-12-31T05:35:16.355Z,100051.25
2022-12-31T05:37:49.050Z,100065.56
2022-12-31T05:40:21.779Z,100054.03
2022-12-31T05:42:54.377Z,100051.25
2022-12-31T05:45:30.683Z,100053.25
2022-12-31T05:48:04.087Z,100065.47
2022-12-31T05:50:36.654Z,100068.03
2022-12-31T05:53:09.170Z,100053.25
2022-12-31T05:55:41.774Z,100065.47
2022-12-31T05:58:15.868Z,100072.84
2022-12-31T06:00:48.413Z,100066.81
2022-12-31T06:03:21.269Z,100054.03
2022-12-31T06:05:53.975Z,100069.56
2022-12-31T06:08:26.539Z,100080.75
2022-12-31T06:10:59.227Z,100081.22
2022-12-31T06:13:31.995Z,100061.63
2022-12-31T06:16:09.766Z,100084.03
2022-12-31T06:18:42.511Z,100084.81
2022-12-31T06:21:16.013Z,100090.38
2022-12-31T06:23:49.435Z,100093.72
2022-12-31T06:26:22.576Z,100089.13
2022-12-31T06:28:55.202Z,100110.22
2022-12-31T06:31:27.990Z,100108.72
2022-12-31T06:34:00.925Z,100105.66
2022-12-31T06:36:33.696Z,100114.03
2022-12-31T06:39:07.242Z,100113.81
2022-12-31T06:41:39.836Z,100085.31
2022-12-31T06:44:12.538Z,100105.38
2022-12-31T06:46:45.256Z,100103.13
2022-12-31T06:49:17.859Z,100102.81
2022-12-31T06:51:50.515Z,100115.81
2022-12-31T06:54:23.058Z,100102.63
2022-12-31T06:56:55.938Z,100099.56
2022-12-31T06:59:30.462Z,100115.91
2022-12-31T07:02:42.136Z,100111.63
2022-12-31T07:05:39.639Z,100113.91
2022-12-31T07:08:44.755Z,100111.38
2022-12-31T07:11:30.963Z,100126.75
2022-12-31T07:14:24.202Z,100114.75
2022-12-31T07:17:14.847Z,100132.31
2022-12-31T07:20:09.487Z,100139.19
2022-12-31T07:22:42.683Z,100128.50
2022-12-31T07:25:18.310Z,100129.28
2022-12-31T07:28:05.975Z,100127.00
2022-12-31T07:31:05.160Z,100121.41
2022-12-31T07:33:59.757Z,100126.50
2022-12-31T07:36:57.807Z,100138.97
2022-12-31T07:40:35.444Z,100135.16
2022-12-31T07:43:41.126Z,100149.97
2022-12-31T07:46:22.162Z,100133.41
2022-12-31T07:48:55.245Z,100118.63
2022-12-31T07:51:28.721Z,100130.34
2022-12-31T07:54:01.319Z,100126.75
2022-12-31T07:56:34.183Z,100145.88
2022-12-31T07:59:51.740Z,100153.00
2022-12-31T08:03:18.843Z,100147.69
2022-12-31T08:06:16.142Z,100135.72
2022-12-31T08:09:02.488Z,100149.19
2022-12-31T08:11:49.572Z,100148.19
2022-12-31T08:14:22.987Z,100164.50
2022-12-31T08:16:56.556Z,100172.16
2022-12-31T08:19:32.743Z,100197.38
2022-12-31T08:22:45.523Z,100169.81
2022-12-31T08:26:06.023Z,100186.91
2022-12-31T08:28:54.526Z,100211.91
2022-12-31T08:31:50.727Z,100219.03
2022-12-31T08:34:44.849Z,100228.22
2022-12-31T08:37:33.403Z,100232.56
2022-12-31T08:40:34.811Z,100243.50
2022-12-31T08:43:37.831Z,100249.38
2022-12-31T08:46:31.147Z,100260.59
2022-12-31T08:49:04.167Z,100261.84
2022-12-31T08:51:37.183Z,100267.25
2022-12-31T08:54:12.352Z,100275.13
2022-12-31T08:56:56.899Z,100278.69
2022-12-31T08:59:51.603Z,100287.63
2022-12-31T09:02:51.757Z,100307.78
2022-12-31T09:05:58.863Z,100296.03
2022-12-31T09:08:52.340Z,100313.63
2022-12-31T09:12:00.416Z,100316.44
2022-12-31T09:14:48.277Z,100319.72
2022-12-31T09:17:43.374Z,100311.34
2022-12-31T09:20:42.872Z,100327.88
2022-12-31T09:23:16.975Z,100321.75
2022-12-31T09:26:10.076Z,100327.38
2022-12-31T09:29:39.506Z,100348.56
2022-12-31T09:32:37.275Z,100342.44
2022-12-31T09:35:42.418Z,100363.59
2022-12-31T09:39:00.946Z,100349.06
2022-12-31T09:41:52.575Z,100355.66
2022-12-31T09:45:19.888Z,100360.78
2022-12-31T09:48:31.655Z,100368.13
2022-12-31T09:51:38.627Z,100370.44
2022-12-31T09:54:54.476Z,100368.88
2022-12-31T09:58:07.138Z,100372.97
2022-12-31T10:01:07.176Z,100366.56
2022-12-31T10:04:19.958Z,100368.63
2022-12-31T10:07:06.129Z,100362.47
2022-12-31T10:10:11.998Z,100379.31
2022-12-31T10:13:24.162Z,100392.63
2022-12-31T10:16:12.403Z,100385.16
2022-12-31T10:19:23.696Z,100387.72
2022-12-31T10:22:38.358Z,100383.94
2022-12-31T10:25:38.967Z,100381.09
2022-12-31T10:28:50.064Z,100372.19
2022-12-31T10:31:48.947Z,100364.84
2022-12-31T10:34:39.639Z,100348.69
2022-12-31T10:37:24.695Z,100346.94
2022-12-31T10:40:11.714Z,100347.94
2022-12-31T10:43:38.991Z,100343.88
2022-12-31T10:47:22.098Z,100366.13
2022-12-31T10:50:50.945Z,100380.09
2022-12-31T10:54:05.090Z,100362.50
2022-12-31T10:56:43.594Z,100371.63
2022-12-31T10:59:54.849Z,100370.44
2022-12-31T11:03:01.895Z,100372.66
2022-12-31T11:06:01.913Z,100378.03
2022-12-31T11:09:22.071Z,100371.91
2022-12-31T11:12:38.053Z,100387.69
2022-12-31T11:15:21.442Z,100393.00
2022-12-31T11:18:22.426Z,100397.38
2022-12-31T11:21:16.405Z,100397.38
2022-12-31T11:24:24.895Z,100386.16
2022-12-31T11:27:25.428Z,100382.28
2022-12-31T11:30:13.153Z,100382.56
2022-12-31T11:33:06.750Z,100401.91
2022-12-31T11:36:16.829Z,100391.75
2022-12-31T11:39:31.020Z,100405.22
2022-12-31T11:42:46.443Z,100401.44
2022-12-31T11:45:43.228Z,100398.63
2022-12-31T11:48:41.206Z,100394.75
2022-12-31T11:51:19.478Z,100398.31
2022-12-31T11:54:14.700Z,100380.97
2022-12-31T11:57:17.984Z,100387.09
2022-12-31T11:59:59.510Z,100382.97
2022-12-31T12:02:41.845Z,100408.19
2022-12-31T12:05:20.182Z,100392.13
2022-12-31T12:07:54.500Z,100396.97
2022-12-31T12:10:36.501Z,100389.31
2022-12-31T12:13:30.048Z,100413.28
2022-12-31T12:16:08.023Z,100409.47
2022-12-31T12:18:48.818Z,100402.09
2022-12-31T12:21:26.600Z,100396.72
2022-12-31T12:24:24.899Z,100390.06
2022-12-31T12:26:57.864Z,100389.38
2022-12-31T12:29:34.911Z,100404.13
2022-12-31T12:32:18.122Z,100395.47
2022-12-31T12:34:53.361Z,100395.47
2022-12-31T12:37:35.477Z,100394.19
2022-12-31T12:40:29.778Z,100409.00
2022-12-31T12:43:07.070Z,100391.66
2022-12-31T12:45:51.619Z,100384.78
2022-12-31T12:48:33.933Z,100387.59
2022-12-31T12:51:49.589Z,100373.56
2022-12-31T12:54:59.415Z,100370.81
2022-12-31T12:57:46.584Z,100368.25
2022-12-31T13:00:29.790Z,100369.22
2022-12-31T13:04:33.158Z,100369.28
2022-12-31T13:07:37.298Z,100383.50
2022-12-31T13:10:29.158Z,100393.72
2022-12-31T13:13:43.339Z,100384.56
2022-12-31T13:16:39.454Z,100387.09
2022-12-31T13:19:20.393Z,100391.66
2022-12-31T13:22:10.984Z,100409.25
2022-12-31T13:25:21.393Z,100406.94
2022-12-31T13:28:02.250Z,100393.66
2022-12-31T13:30:47.403Z,100393.16
2022-12-31T13:33:31.449Z,100387.53
2022-12-31T13:36:10.291Z,100392.13
2022-12-31T13:38:53.892Z,100379.16
2022-12-31T13:41:34.649Z,100380.91
2022-12-31T13:44:36.857Z,100388.34
2022-12-31T13:47:27.919Z,100377.09
2022-12-31T13:50:25.035Z,100397.03
2022-12-31T13:53:27.091Z,100389.88
2022-12-31T13:56:13.106Z,100365.13
2022-12-31T13:58:56.750Z,100367.66
2022-12-31T14:01:58.129Z,100371.50
2022-12-31T14:05:05.211Z,100368.41
2022-12-31T14:07:51.138Z,100391.59
2022-12-31T14:10:50.792Z,100388.84
2022-12-31T14:14:06.471Z,100392.44
2022-12-31T14:16:55.422Z,100406.09
2022-12-31T14:19:48.151Z,100398.00
2022-12-31T14:22:56.100Z,100396.50
2022-12-31T14:25:53.227Z,100402.59
2022-12-31T14:28:35.692Z,100391.06
2022-12-31T14:31:46.111Z,100380.38
2022-12-31T14:34:51.906Z,100404.84
2022-12-31T14:37:42.544Z,100401.28
2022-12-31T14:41:09.870Z,100403.59
2022-12-31T14:44:20.126Z,100415.06
2022-12-31T14:47:23.234Z,100409.16
2022-12-31T14:50:34.760Z,100426.06
2022-12-31T14:53:21.563Z,100433.81
2022-12-31T14:56:06.473Z,100414.47
2022-12-31T14:58:42.596Z,100414.94
2022-12-31T15:01:15.787Z,100408.34
2022-12-31T15:03:51.729Z,100434.81
2022-12-31T15:06:24.211Z,100430.00
2022-12-31T15:09:16.617Z,100438.88
2022-12-31T15:12:45.035Z,100433.06
2022-12-31T15:15:48.558Z,100432.53
2022-12-31T15:18:56.970Z,100429.03
2022-12-31T15:21:37.692Z,100423.69
2022-12-31T15:24:27.954Z,100428.28
2022-12-31T15:27:05.187Z,100425.75
2022-12-31T15:29:45.568Z,100420.69
2022-12-31T15:32:25.400Z,100409.47
2022-12-31T15:35:27.208Z,100421.47
2022-12-31T15:38:30.912Z,100426.34
2022-12-31T15:41:36.289Z,100418.72
2022-12-31T15:44:28.931Z,100426.13
2022-12-31T15:47:24.227Z,100435.31
2022-12-31T15:50:03.943Z,100417.47
2022-12-31T15:52:48.160Z,100422.06
2022-12-31T15:55:32.807Z,100418.28
2022-12-31T15:58:20.480Z,100428.69
2022-12-31T16:01:02.137Z,100428.22
2022-12-31T16:03:34.916Z,100415.47
2022-12-31T16:06:16.538Z,100421.09
2022-12-31T16:08:50.948Z,100422.09
2022-12-31T16:11:25.943Z,100426.69
2022-12-31T16:13:59.836Z,100432.28
2022-12-31T16:16:33.408Z,100430.28
2022-12-31T16:19:29.915Z,100439.25
2022-12-31T16:22:14.751Z,100426.97
2022-12-31T16:27:53.798Z,100410.66
2022-12-31T16:30:30.539Z,100415.22
2022-12-31T16:33:11.652Z,100417.53
2022-12-31T16:35:57.761Z,100403.81
2022-12-31T16:38:36.709Z,100407.06
2022-12-31T16:41:21.165Z,100402.25
2022-12-31T16:43:53.880Z,100391.28
2022-12-31T16:46:32.113Z,100387.94
2022-12-31T16:49:19.234Z,100400.22
2022-12-31T16:51:55.960Z,100397.13
2022-12-31T16:54:38.948Z,100398.66
2022-12-31T16:57:22.550Z,100405.81
2022-12-31T17:00:02.337Z,100401.19
2022-12-31T17:02:40.288Z,100405.56
2022-12-31T17:05:23.376Z,100394.34
2022-12-31T17:07:56.324Z,100401.72
2022-12-31T17:10:36.406Z,100399.41
2022-12-31T17:13:29.444Z,100404.25
2022-12-31T17:16:03.927Z,100394.31
2022-12-31T17:18:38.678Z,100400.94
2022-12-31T17:21:11.792Z,100397.81
2022-12-31T17:23:55.431Z,100417.25
2022-12-31T17:26:32.366Z,100395.78
2022-12-31T17:29:06.134Z,100411.13
2022-12-31T17:31:42.295Z,100415.16
2022-12-31T17:34:14.865Z,100393.28
2022-12-31T17:37:24.576Z,100393.81
2022-12-31T17:40:49.902Z,100385.38
2022-12-31T17:42:55.874Z,100393.78
2022-12-31T17:45:29.020Z,100395.53
2022-12-31T17:48:01.811Z,100387.09
2022-12-31T17:50:34.377Z,100371.84
2022-12-31T17:53:26.013Z,100382.78
2022-12-31T17:56:18.260Z,100390.69
2022-12-31T17:58:54.291Z,100381.97
2022-12-31T18:01:27.091Z,100358.28
2022-12-31T18:04:06.345Z,100388.88
2022-12-31T18:06:38.942Z,100390.66
2022-12-31T18:09:11.997Z,100409.75
2022-12-31T18:11:45.423Z,100405.16
2022-12-31T18:14:17.959Z,100404.41
2022-12-31T18:16:50.528Z,100409.47
2022-12-31T18:19:54.207Z,100391.59
2022-12-31T18:22:17.088Z,100397.25
2022-12-31T18:24:54.372Z,100391.59
2022-12-31T18:27:27.271Z,100385.78
2022-12-31T18:30:04.510Z,100389.59
2022-12-31T18:32:41.283Z,100379.13
2022-12-31T18:38:16.556Z,100373.22
2022-12-31T18:40:59.823Z,100393.91
2022-12-31T18:43:32.358Z,100373.50
2022-12-31T18:46:05.126Z,100380.88
2022-12-31T18:48:37.718Z,100381.41
2022-12-31T18:51:23.999Z,100386.69
2022-12-31T18:54:09.061Z,100397.94
2022-12-31T18:56:46.698Z,100386.94
2022-12-31T18:59:20.255Z,100396.13
2022-12-31T19:01:52.892Z,100397.91
2022-12-31T19:04:28.258Z,100413.72
2022-12-31T19:07:01.266Z,100406.28
2022-12-31T19:09:45.701Z,100414.94
2022-12-31T19:12:19.061Z,100415.47
2022-12-31T19:14:51.724Z,100424.88
2022-12-31T19:17:24.474Z,100430.00
2022-12-31T19:20:01.817Z,100414.16
2022-12-31T19:22:34.481Z,100423.09
2022-12-31T19:25:26.201Z,100424.66
2022-12-31T19:27:58.902Z,100438.34
2022-12-31T19:30:34.418Z,100424.06
2022-12-31T19:33:07.100Z,100431.22
2022-12-31T19:35:41.772Z,100437.56
2022-12-31T19:38:24.995Z,100452.06
2022-12-31T19:40:57.952Z,100449.78
2022-12-31T19:43:30.679Z,100454.59
2022-12-31T19:46:04.381Z,100450.00
2022-12-31T19:48:36.972Z,100439.56
2022-12-31T19:51:15.155Z,100436.47
2022-12-31T19:53:49.408Z,100451.53
2022-12-31T19:56:22.151Z,100455.13
2022-12-31T19:58:54.948Z,100456.38
2022-12-31T20:01:27.632Z,100464.75
2022-12-31T20:04:00.448Z,100470.88
2022-12-31T20:06:33.145Z,100473.63
2022-12-31T20:09:05.854Z,100469.34
2022-12-31T20:11:45.888Z,100461.09
2022-12-31T20:14:18.549Z,100465.25
2022-12-31T20:16:52.471Z,100473.38
2022-12-31T20:19:25.256Z,100463.94
2022-12-31T20:21:58.058Z,100457.41
2022-12-31T20:24:30.670Z,100475.69
2022-12-31T20:27:03.608Z,100478.22
2022-12-31T20:29:36.650Z,100461.44
2022-12-31T20:32:09.867Z,100474.88
2022-12-31T20:34:42.422Z,100478.75
2022-12-31T20:37:14.991Z,100471.31
2022-12-31T20:39:47.575Z,100474.41
2022-12-31T20:42:20.525Z,100466.47
2022-12-31T20:44:59.201Z,100464.38
2022-12-31T20:47:37.684Z,100484.19
2022-12-31T20:50:12.248Z,100468.97
2022-12-31T20:52:45.291Z,100472.31
2022-12-31T20:55:18.257Z,100480.44
2022-12-31T20:57:50.899Z,100471.00
2022-12-31T21:00:23.720Z,100479.66
2022-12-31T21:03:10.621Z,100487.78
2022-12-31T21:05:54.209Z,100482.94
2022-12-31T21:08:32.662Z,100488.56
2022-12-31T21:11:28.744Z,100478.59
2022-12-31T21:14:01.904Z,100481.94
2022-12-31T21:16:35.358Z,100476.59
2022-12-31T21:19:08.083Z,100477.81
2022-12-31T21:21:40.868Z,100483.41
2022-12-31T21:24:20.168Z,100481.84
2022-12-31T21:26:56.082Z,100484.16
2022-12-31T21:29:32.772Z,100473.19
2022-12-31T21:32:07.254Z,100481.38
2022-12-31T21:34:40.810Z,100485.94
2022-12-31T21:37:13.440Z,100492.28
2022-12-31T21:39:46.080Z,100482.88
2022-12-31T21:42:18.698Z,100491.53
2022-12-31T21:44:51.206Z,100485.16
2022-12-31T21:47:47.436Z,100507.31
2022-12-31T21:50:20.544Z,100503.50
2022-12-31T21:52:53.140Z,100516.44
2022-12-31T21:55:45.606Z,100506.00
2022-12-31T21:58:27.239Z,100505.25
2022-12-31T22:01:19.405Z,100506.00
2022-12-31T22:03:55.502Z,100513.38
2022-12-31T22:09:25.579Z,100516.44
2022-12-31T22:11:58.233Z,100525.81
2022-12-31T22:14:32.029Z,100528.63
2022-12-31T22:17:04.581Z,100508.75
2022-12-31T22:19:54.592Z,100518.44
2022-12-31T22:22:29.724Z,100523.25
2022-12-31T22:25:02.480Z,100533.66
2022-12-31T22:27:35.158Z,100532.41
2022-12-31T22:30:08.533Z,100534.94
2022-12-31T22:32:41.115Z,100529.81
2022-12-31T22:35:13.952Z,100531.38
2022-12-31T22:37:57.053Z,100532.16
2022-12-31T22:40:30.712Z,100533.66
2022-12-31T22:43:03.670Z,100546.13
2022-12-31T22:45:36.546Z,100529.06
2022-12-31T22:48:09.753Z,100534.66
2022-12-31T22:50:42.725Z,100548.38
2022-12-31T22:53:16.243Z,100548.38
2022-12-31T22:55:48.897Z,100559.38
2022-12-31T22:58:23.792Z,100559.00
2022-12-31T23:00:58.680Z,100558.06
2022-12-31T23:03:36.346Z,100577.13
2022-12-31T23:06:10.145Z,100577.63
2022-12-31T23:09:02.824Z,100579.16
2022-12-31T23:11:37.784Z,100577.38
2022-12-31T23:14:35.745Z,100578.13
2022-12-31T23:17:36.156Z,100572.31
2022-12-31T23:20:34.588Z,100580.44
2022-12-31T23:23:09.221Z,100592.41
2022-12-31T23:25:47.317Z,100582.97
2022-12-31T23:28:24.730Z,100575.53
2022-12-31T23:30:57.822Z,100582.97
2022-12-31T23:33:31.487Z,100576.81
2022-12-31T23:36:07.843Z,100573.00
2022-12-31T23:38:40.435Z,100572.72
2022-12-31T23:41:15.762Z,100575.03
2022-12-31T23:43:49.368Z,100577.09
2022-12-31T23:46:25.068Z,100573.72
2022-12-31T23:48:57.700Z,100571.22
2022-12-31T23:51:30.401Z,100571.41
2022-12-31T23:54:04.516Z,100576.41
2022-12-31T23:56:36.945Z,100584.00
2022-12-31T23:59:12.197Z,100594.16
